sensor_id;sensor_type;location;lat;lon;timestamp;pressure;altitude;pressure_sealevel;temperature
62611;BMP280;48683;48.084;17.272;2023-03-25T00:01:05;99647.03;;;13.83
62611;BMP280;48683;48.084;17.272;2023-03-25T00:03:34;99647.09;;;13.79
62611;BMP280;48683;48.084;17.272;2023-03-25T00:05:59;99649.72;;;13.83
62611;BMP280;48683;48.084;17.272;2023-03-25T00:08:25;99659.06;;;13.78
62611;BMP280;48683;48.084;17.272;2023-03-25T00:10:52;99657.88;;;13.79
62611;BMP280;48683;48.084;17.272;2023-03-25T00:13:18;99648.78;;;13.73
62611;BMP280;48683;48.084;17.272;2023-03-25T00:15:44;99656.03;;;13.76
62611;BMP280;48683;48.084;17.272;2023-03-25T00:18:13;99647.59;;;13.74
62611;BMP280;48683;48.084;17.272;2023-03-25T00:20:41;99644.41;;;13.79
62611;BMP280;48683;48.084;17.272;2023-03-25T00:23:11;99642.38;;;13.83
62611;BMP280;48683;48.084;17.272;2023-03-25T00:25:37;99629.75;;;13.80
62611;BMP280;48683;48.084;17.272;2023-03-25T00:28:02;99636.59;;;13.85
62611;BMP280;48683;48.084;17.272;2023-03-25T00:30:28;99623.50;;;13.83
62611;BMP280;48683;48.084;17.272;2023-03-25T00:32:53;99616.50;;;13.86
62611;BMP280;48683;48.084;17.272;2023-03-25T00:35:20;99619.88;;;13.90
62611;BMP280;48683;48.084;17.272;2023-03-25T00:37:50;99618.38;;;13.89
62611;BMP280;48683;48.084;17.272;2023-03-25T00:40:22;99615.31;;;13.87
62611;BMP280;48683;48.084;17.272;2023-03-25T00:42:47;99607.72;;;13.82
62611;BMP280;48683;48.084;17.272;2023-03-25T00:45:14;99613.03;;;13.85
62611;BMP280;48683;48.084;17.272;2023-03-25T00:47:40;99613.03;;;13.85
62611;BMP280;48683;48.084;17.272;2023-03-25T00:50:06;99613.03;;;13.85
62611;BMP280;48683;48.084;17.272;2023-03-25T00:52:31;99607.72;;;13.82
62611;BMP280;48683;48.084;17.272;2023-03-25T00:54:57;99603.94;;;13.79
62611;BMP280;48683;48.084;17.272;2023-03-25T00:57:22;99597.78;;;13.78
62611;BMP280;48683;48.084;17.272;2023-03-25T00:59:48;99595.53;;;13.77
62611;BMP280;48683;48.084;17.272;2023-03-25T01:02:13;99606.22;;;13.81
62611;BMP280;48683;48.084;17.272;2023-03-25T01:04:40;99602.41;;;13.78
62611;BMP280;48683;48.084;17.272;2023-03-25T01:07:06;99618.19;;;13.79
62611;BMP280;48683;48.084;17.272;2023-03-25T01:09:32;99620.88;;;13.79
62611;BMP280;48683;48.084;17.272;2023-03-25T01:11:57;99621.75;;;13.76
62611;BMP280;48683;48.084;17.272;2023-03-25T01:14:22;99611.72;;;13.77
62611;BMP280;48683;48.084;17.272;2023-03-25T01:16:54;99613.63;;;13.76
62611;BMP280;48683;48.084;17.272;2023-03-25T01:19:20;99607.41;;;13.79
62611;BMP280;48683;48.084;17.272;2023-03-25T01:21:46;99596.69;;;13.76
62611;BMP280;48683;48.084;17.272;2023-03-25T01:24:13;99593.72;;;13.70
62611;BMP280;48683;48.084;17.272;2023-03-25T01:26:39;99597.94;;;13.71
62611;BMP280;48683;48.084;17.272;2023-03-25T01:29:05;99595.84;;;13.63
62611;BMP280;48683;48.084;17.272;2023-03-25T01:31:31;99577.97;;;13.53
62611;BMP280;48683;48.084;17.272;2023-03-25T01:33:57;99601.22;;;13.63
62611;BMP280;48683;48.084;17.272;2023-03-25T01:36:26;99608.91;;;13.64
62611;BMP280;48683;48.084;17.272;2023-03-25T01:38:54;99604.69;;;13.63
62611;BMP280;48683;48.084;17.272;2023-03-25T01:41:20;99595.16;;;13.59
62611;BMP280;48683;48.084;17.272;2023-03-25T01:46:39;99595.38;;;13.48
62611;BMP280;48683;48.084;17.272;2023-03-25T01:49:12;99604.50;;;13.54
62611;BMP280;48683;48.084;17.272;2023-03-25T01:51:41;99590.41;;;13.47
62611;BMP280;48683;48.084;17.272;2023-03-25T01:54:09;99589.16;;;13.51
62611;BMP280;48683;48.084;17.272;2023-03-25T01:56:39;99589.16;;;13.51
62611;BMP280;48683;48.084;17.272;2023-03-25T01:59:08;99580.66;;;13.53
62611;BMP280;48683;48.084;17.272;2023-03-25T02:01:35;99588.31;;;13.54
62611;BMP280;48683;48.084;17.272;2023-03-25T02:04:02;99579.91;;;13.52
62611;BMP280;48683;48.084;17.272;2023-03-25T02:06:49;99577.19;;;13.52
62611;BMP280;48683;48.084;17.272;2023-03-25T02:09:19;99582.41;;;13.43
62611;BMP280;48683;48.084;17.272;2023-03-25T02:11:45;99586.91;;;13.50
62611;BMP280;48683;48.084;17.272;2023-03-25T02:14:17;99575.66;;;13.35
62611;BMP280;48683;48.084;17.272;2023-03-25T02:31:31;99578.78;;;13.34
62611;BMP280;48683;48.084;17.272;2023-03-25T02:39:40;99592.41;;;13.43
62611;BMP280;48683;48.084;17.272;2023-03-25T02:42:16;99597.63;;;13.34
62611;BMP280;48683;48.084;17.272;2023-03-25T02:44:46;99593.50;;;13.29
62611;BMP280;48683;48.084;17.272;2023-03-25T02:47:16;99591.97;;;13.28
62611;BMP280;48683;48.084;17.272;2023-03-25T02:49:46;99587.16;;;13.19
62611;BMP280;48683;48.084;17.272;2023-03-25T02:52:16;99582.88;;;13.22
62611;BMP280;48683;48.084;17.272;2023-03-25T02:54:45;99584.44;;;13.19
62611;BMP280;48683;48.084;17.272;2023-03-25T02:57:14;99580.25;;;13.18
62611;BMP280;48683;48.084;17.272;2023-03-25T02:59:44;99576.63;;;13.05
62611;BMP280;48683;48.084;17.272;2023-03-25T03:02:10;99589.66;;;13.10
62611;BMP280;48683;48.084;17.272;2023-03-25T03:04:51;99580.44;;;13.08
62611;BMP280;48683;48.084;17.272;2023-03-25T03:07:40;99586.53;;;13.12
62611;BMP280;48683;48.084;17.272;2023-03-25T03:10:20;99584.72;;;13.05
62611;BMP280;48683;48.084;17.272;2023-03-25T03:15:58;99584.31;;;13.07
62611;BMP280;48683;48.084;17.272;2023-03-25T03:18:30;99591.59;;;13.10
62611;BMP280;48683;48.084;17.272;2023-03-25T03:21:11;99580.09;;;13.06
62611;BMP280;48683;48.084;17.272;2023-03-25T03:23:51;99579.47;;;12.98
62611;BMP280;48683;48.084;17.272;2023-03-25T03:29:30;99582.66;;;12.93
62611;BMP280;48683;48.084;17.272;2023-03-25T03:37:15;99606.91;;;12.93
62611;BMP280;48683;48.084;17.272;2023-03-25T03:39:42;99607.66;;;12.94
62611;BMP280;48683;48.084;17.272;2023-03-25T03:42:33;99596.06;;;12.97
62611;BMP280;48683;48.084;17.272;2023-03-25T03:45:05;99602.47;;;12.83
62611;BMP280;48683;48.084;17.272;2023-03-25T03:47:36;99617.81;;;12.86
62611;BMP280;48683;48.084;17.272;2023-03-25T03:50:07;99623.66;;;12.81
62611;BMP280;48683;48.084;17.272;2023-03-25T03:55:28;99639.81;;;12.81
62611;BMP280;48683;48.084;17.272;2023-03-25T03:58:01;99637.56;;;12.79
62611;BMP280;48683;48.084;17.272;2023-03-25T04:00:45;99626.78;;;12.79
62611;BMP280;48683;48.084;17.272;2023-03-25T04:03:20;99627.88;;;12.82
62611;BMP280;48683;48.084;17.272;2023-03-25T04:05:53;99643.28;;;12.81
62611;BMP280;48683;48.084;17.272;2023-03-25T04:08:28;99651.03;;;12.79
62611;BMP280;48683;48.084;17.272;2023-03-25T04:10:58;99641.81;;;12.77
62611;BMP280;48683;48.084;17.272;2023-03-25T04:13:31;99643.75;;;12.76
62611;BMP280;48683;48.084;17.272;2023-03-25T04:15:58;99647.22;;;12.77
62611;BMP280;48683;48.084;17.272;2023-03-25T04:18:27;99652.31;;;12.71
62611;BMP280;48683;48.084;17.272;2023-03-25T04:20:53;99651.09;;;12.76
62611;BMP280;48683;48.084;17.272;2023-03-25T04:23:19;99653.81;;;12.72
62611;BMP280;48683;48.084;17.272;2023-03-25T04:25:45;99651.84;;;12.76
62611;BMP280;48683;48.084;17.272;2023-03-25T04:28:17;99648.44;;;12.72
62611;BMP280;48683;48.084;17.272;2023-03-25T04:30:43;99649.97;;;12.73
62611;BMP280;48683;48.084;17.272;2023-03-25T04:33:21;99654.13;;;12.78
62611;BMP280;48683;48.084;17.272;2023-03-25T04:35:46;99651.50;;;12.74
62611;BMP280;48683;48.084;17.272;2023-03-25T04:38:16;99651.97;;;12.69
62611;BMP280;48683;48.084;17.272;2023-03-25T04:40:42;99649.81;;;12.61
62611;BMP280;48683;48.084;17.272;2023-03-25T04:43:12;99654.09;;;12.58
62611;BMP280;48683;48.084;17.272;2023-03-25T04:45:37;99660.25;;;12.59
62611;BMP280;48683;48.084;17.272;2023-03-25T04:48:02;99665.22;;;12.60
62611;BMP280;48683;48.084;17.272;2023-03-25T04:50:30;99662.88;;;12.62
62611;BMP280;48683;48.084;17.272;2023-03-25T04:52:56;99659.78;;;12.64
62611;BMP280;48683;48.084;17.272;2023-03-25T04:55:24;99671.78;;;12.59
62611;BMP280;48683;48.084;17.272;2023-03-25T04:57:51;99655.75;;;12.52
62611;BMP280;48683;48.084;17.272;2023-03-25T05:00:18;99660.94;;;12.63
62611;BMP280;48683;48.084;17.272;2023-03-25T05:02:46;99661.75;;;12.60
62611;BMP280;48683;48.084;17.272;2023-03-25T05:05:16;99673.00;;;12.55
62611;BMP280;48683;48.084;17.272;2023-03-25T05:07:46;99659.66;;;12.48
62611;BMP280;48683;48.084;17.272;2023-03-25T05:10:14;99681.38;;;12.60
62611;BMP280;48683;48.084;17.272;2023-03-25T05:12:40;99683.81;;;12.51
62611;BMP280;48683;48.084;17.272;2023-03-25T05:15:06;99689.44;;;12.60
62611;BMP280;48683;48.084;17.272;2023-03-25T05:17:32;99689.47;;;12.57
62611;BMP280;48683;48.084;17.272;2023-03-25T05:19:57;99692.53;;;12.59
62611;BMP280;48683;48.084;17.272;2023-03-25T05:22:23;99690.94;;;12.61
62611;BMP280;48683;48.084;17.272;2023-03-25T05:24:48;99692.94;;;12.57
62611;BMP280;48683;48.084;17.272;2023-03-25T05:27:20;99684.53;;;12.55
62611;BMP280;48683;48.084;17.272;2023-03-25T05:29:45;99704.06;;;12.59
62611;BMP280;48683;48.084;17.272;2023-03-25T05:32:11;99697.56;;;12.57
62611;BMP280;48683;48.084;17.272;2023-03-25T05:34:38;99697.22;;;12.55
62611;BMP280;48683;48.084;17.272;2023-03-25T05:37:04;99686.06;;;12.56
62611;BMP280;48683;48.084;17.272;2023-03-25T05:39:29;99695.53;;;12.64
62611;BMP280;48683;48.084;17.272;2023-03-25T05:41:55;99693.19;;;12.66
62611;BMP280;48683;48.084;17.272;2023-03-25T05:44:27;99697.22;;;12.78
62611;BMP280;48683;48.084;17.272;2023-03-25T05:46:52;99693.34;;;12.79
62611;BMP280;48683;48.084;17.272;2023-03-25T05:49:18;99685.34;;;12.75
62611;BMP280;48683;48.084;17.272;2023-03-25T05:51:43;99712.16;;;12.82
62611;BMP280;48683;48.084;17.272;2023-03-25T05:54:09;99714.84;;;12.82
62611;BMP280;48683;48.084;17.272;2023-03-25T05:56:35;99706.31;;;12.84
62611;BMP280;48683;48.084;17.272;2023-03-25T05:59:01;99717.75;;;12.92
62611;BMP280;48683;48.084;17.272;2023-03-25T06:01:27;99712.78;;;12.90
62611;BMP280;48683;48.084;17.272;2023-03-25T06:03:53;99714.00;;;12.85
62611;BMP280;48683;48.084;17.272;2023-03-25T06:06:18;99715.81;;;12.92
62611;BMP280;48683;48.084;17.272;2023-03-25T06:08:48;99728.53;;;12.92
62611;BMP280;48683;48.084;17.272;2023-03-25T06:11:15;99728.94;;;12.90
62611;BMP280;48683;48.084;17.272;2023-03-25T06:13:41;99737.34;;;12.92
62611;BMP280;48683;48.084;17.272;2023-03-25T06:16:21;99737.66;;;12.98
62611;BMP280;48683;48.084;17.272;2023-03-25T06:18:49;99727.22;;;13.00
62611;BMP280;48683;48.084;17.272;2023-03-25T06:21:18;99728.75;;;13.01
62611;BMP280;48683;48.084;17.272;2023-03-25T06:23:45;99736.28;;;13.09
62611;BMP280;48683;48.084;17.272;2023-03-25T06:26:10;99732.97;;;13.02
62611;BMP280;48683;48.084;17.272;2023-03-25T06:28:36;99743.16;;;13.14
62611;BMP280;48683;48.084;17.272;2023-03-25T06:31:01;99736.63;;;13.15
62611;BMP280;48683;48.084;17.272;2023-03-25T06:33:31;99737.03;;;13.13
62611;BMP280;48683;48.084;17.272;2023-03-25T06:35:56;99728.47;;;13.18
62611;BMP280;48683;48.084;17.272;2023-03-25T06:38:22;99726.03;;;13.24
62611;BMP280;48683;48.084;17.272;2023-03-25T06:40:47;99743.97;;;13.34
62611;BMP280;48683;48.084;17.272;2023-03-25T06:43:13;99739.19;;;13.42
62611;BMP280;48683;48.084;17.272;2023-03-25T06:45:38;99754.78;;;13.50
62611;BMP280;48683;48.084;17.272;2023-03-25T06:48:04;99753.63;;;13.51
62611;BMP280;48683;48.084;17.272;2023-03-25T06:50:30;99741.25;;;13.34
62611;BMP280;48683;48.084;17.272;2023-03-25T06:52:56;99744.69;;;13.35
62611;BMP280;48683;48.084;17.272;2023-03-25T06:55:22;99743.75;;;13.45
62611;BMP280;48683;48.084;17.272;2023-03-25T06:57:47;99757.22;;;13.64
62611;BMP280;48683;48.084;17.272;2023-03-25T07:00:13;99766.19;;;13.77
62611;BMP280;48683;48.084;17.272;2023-03-25T07:02:38;99762.69;;;13.81
62611;BMP280;48683;48.084;17.272;2023-03-25T07:05:05;99765.22;;;13.88
62611;BMP280;48683;48.084;17.272;2023-03-25T07:07:30;99766.03;;;14.04
62611;BMP280;48683;48.084;17.272;2023-03-25T07:09:56;99773.63;;;14.09
62611;BMP280;48683;48.084;17.272;2023-03-25T07:12:22;99773.91;;;14.15
62611;BMP280;48683;48.084;17.272;2023-03-25T07:14:55;99762.16;;;14.21
62611;BMP280;48683;48.084;17.272;2023-03-25T07:17:22;99762.84;;;14.25
62611;BMP280;48683;48.084;17.272;2023-03-25T07:19:48;99755.66;;;14.39
62611;BMP280;48683;48.084;17.272;2023-03-25T07:22:14;99756.47;;;14.52
62611;BMP280;48683;48.084;17.272;2023-03-25T07:24:40;99769.84;;;14.59
62611;BMP280;48683;48.084;17.272;2023-03-25T07:27:05;99757.94;;;14.56
62611;BMP280;48683;48.084;17.272;2023-03-25T07:29:30;99746.03;;;14.70
62611;BMP280;48683;48.084;17.272;2023-03-25T07:31:56;99751.75;;;14.88
62611;BMP280;48683;48.084;17.272;2023-03-25T07:34:21;99762.28;;;14.99
62611;BMP280;48683;48.084;17.272;2023-03-25T07:36:47;99750.34;;;15.12
62611;BMP280;48683;48.084;17.272;2023-03-25T07:39:12;99743.59;;;15.20
62611;BMP280;48683;48.084;17.272;2023-03-25T07:41:38;99728.69;;;15.29
62611;BMP280;48683;48.084;17.272;2023-03-25T07:44:03;99726.19;;;15.34
62611;BMP280;48683;48.084;17.272;2023-03-25T07:46:29;99708.78;;;15.06
62611;BMP280;48683;48.084;17.272;2023-03-25T07:48:54;99700.19;;;15.11
62611;BMP280;48683;48.084;17.272;2023-03-25T07:51:20;99698.75;;;15.07
62611;BMP280;48683;48.084;17.272;2023-03-25T07:53:45;99690.28;;;15.21
62611;BMP280;48683;48.084;17.272;2023-03-25T07:56:11;99702.78;;;15.44
62611;BMP280;48683;48.084;17.272;2023-03-25T07:58:37;99707.53;;;15.40
62611;BMP280;48683;48.084;17.272;2023-03-25T08:01:03;99680.97;;;15.51
62611;BMP280;48683;48.084;17.272;2023-03-25T08:03:29;99693.94;;;15.68
62611;BMP280;48683;48.084;17.272;2023-03-25T08:05:54;99687.81;;;15.81
62611;BMP280;48683;48.084;17.272;2023-03-25T08:08:20;99675.34;;;15.71
62611;BMP280;48683;48.084;17.272;2023-03-25T08:10:45;99684.22;;;15.71
62611;BMP280;48683;48.084;17.272;2023-03-25T08:13:12;99689.09;;;15.76
62611;BMP280;48683;48.084;17.272;2023-03-25T08:15:38;99681.72;;;15.77
62611;BMP280;48683;48.084;17.272;2023-03-25T08:18:05;99694.28;;;16.08
62611;BMP280;48683;48.084;17.272;2023-03-25T08:20:32;99685.63;;;16.01
62611;BMP280;48683;48.084;17.272;2023-03-25T08:22:57;99676.56;;;15.95
62611;BMP280;48683;48.084;17.272;2023-03-25T08:25:23;99684.34;;;15.93
62611;BMP280;48683;48.084;17.272;2023-03-25T08:27:48;99670.69;;;15.84
62611;BMP280;48683;48.084;17.272;2023-03-25T08:30:14;99681.19;;;15.69
62611;BMP280;48683;48.084;17.272;2023-03-25T08:32:40;99693.34;;;15.90
62611;BMP280;48683;48.084;17.272;2023-03-25T08:35:06;99681.84;;;15.73
62611;BMP280;48683;48.084;17.272;2023-03-25T08:37:32;99691.91;;;15.73
62611;BMP280;48683;48.084;17.272;2023-03-25T08:40:01;99687.69;;;15.72
62611;BMP280;48683;48.084;17.272;2023-03-25T08:42:31;99698.31;;;15.79
62611;BMP280;48683;48.084;17.272;2023-03-25T08:44:56;99698.63;;;15.93
62611;BMP280;48683;48.084;17.272;2023-03-25T08:47:22;99702.94;;;16.03
62611;BMP280;48683;48.084;17.272;2023-03-25T08:49:47;99707.28;;;16.01
62611;BMP280;48683;48.084;17.272;2023-03-25T08:52:12;99712.06;;;16.09
62611;BMP280;48683;48.084;17.272;2023-03-25T08:54:38;99711.41;;;15.93
62611;BMP280;48683;48.084;17.272;2023-03-25T08:57:03;99706.22;;;15.98
62611;BMP280;48683;48.084;17.272;2023-03-25T08:59:29;99705.13;;;16.08
62611;BMP280;48683;48.084;17.272;2023-03-25T09:01:55;99713.03;;;16.03
62611;BMP280;48683;48.084;17.272;2023-03-25T09:04:20;99696.47;;;15.76
62611;BMP280;48683;48.084;17.272;2023-03-25T09:06:46;99696.31;;;15.54
62611;BMP280;48683;48.084;17.272;2023-03-25T09:09:11;99699.19;;;15.76
62611;BMP280;48683;48.084;17.272;2023-03-25T09:11:37;99692.22;;;15.62
62611;BMP280;48683;48.084;17.272;2023-03-25T09:14:03;99699.06;;;15.66
62611;BMP280;48683;48.084;17.272;2023-03-25T09:16:32;99687.31;;;15.44
62611;BMP280;48683;48.084;17.272;2023-03-25T09:18:58;99710.53;;;15.42
62611;BMP280;48683;48.084;17.272;2023-03-25T09:21:24;99711.38;;;15.55
62611;BMP280;48683;48.084;17.272;2023-03-25T09:23:49;99712.91;;;15.81
62611;BMP280;48683;48.084;17.272;2023-03-25T09:26:14;99718.53;;;15.74
62611;BMP280;48683;48.084;17.272;2023-03-25T09:28:40;99698.81;;;15.61
62611;BMP280;48683;48.084;17.272;2023-03-25T09:31:05;99697.22;;;15.63
62611;BMP280;48683;48.084;17.272;2023-03-25T09:33:32;99711.63;;;15.98
62611;BMP280;48683;48.084;17.272;2023-03-25T09:35:57;99709.78;;;16.08
62611;BMP280;48683;48.084;17.272;2023-03-25T09:38:23;99722.66;;;16.17
62611;BMP280;48683;48.084;17.272;2023-03-25T09:40:48;99691.47;;;16.37
62611;BMP280;48683;48.084;17.272;2023-03-25T09:45:58;99689.47;;;16.50
62611;BMP280;48683;48.084;17.272;2023-03-25T09:48:41;99693.06;;;16.35
62611;BMP280;48683;48.084;17.272;2023-03-25T09:51:23;99705.88;;;16.22
62611;BMP280;48683;48.084;17.272;2023-03-25T09:54:04;99711.91;;;16.51
62611;BMP280;48683;48.084;17.272;2023-03-25T09:56:36;99708.88;;;16.49
62611;BMP280;48683;48.084;17.272;2023-03-25T09:59:08;99714.66;;;16.26
62611;BMP280;48683;48.084;17.272;2023-03-25T10:04:16;99721.81;;;15.94
62611;BMP280;48683;48.084;17.272;2023-03-25T10:07:04;99717.06;;;15.98
62611;BMP280;48683;48.084;17.272;2023-03-25T10:09:43;99712.47;;;15.95
62611;BMP280;48683;48.084;17.272;2023-03-25T10:12:32;99730.91;;;16.00
62611;BMP280;48683;48.084;17.272;2023-03-25T10:16:05;99723.00;;;16.06
62611;BMP280;48683;48.084;17.272;2023-03-25T10:26:47;99723.31;;;16.08
62611;BMP280;48683;48.084;17.272;2023-03-25T10:29:19;99721.06;;;15.94
62611;BMP280;48683;48.084;17.272;2023-03-25T10:31:51;99713.13;;;15.74
62611;BMP280;48683;48.084;17.272;2023-03-25T10:34:18;99725.75;;;15.52
62611;BMP280;48683;48.084;17.272;2023-03-25T10:36:48;99725.97;;;15.57
62611;BMP280;48683;48.084;17.272;2023-03-25T10:39:18;99723.50;;;15.63
62611;BMP280;48683;48.084;17.272;2023-03-25T10:41:47;99709.00;;;15.41
62611;BMP280;48683;48.084;17.272;2023-03-25T10:44:14;99715.44;;;15.47
62611;BMP280;48683;48.084;17.272;2023-03-25T10:46:45;99711.56;;;15.60
62611;BMP280;48683;48.084;17.272;2023-03-25T10:49:26;99709.84;;;15.54
62611;BMP280;48683;48.084;17.272;2023-03-25T10:51:52;99709.09;;;15.53
62611;BMP280;48683;48.084;17.272;2023-03-25T10:54:20;99721.69;;;15.85
62611;BMP280;48683;48.084;17.272;2023-03-25T10:56:51;99708.03;;;15.76
62611;BMP280;48683;48.084;17.272;2023-03-25T10:59:26;99717.00;;;15.73
62611;BMP280;48683;48.084;17.272;2023-03-25T11:01:58;99708.66;;;15.55
62611;BMP280;48683;48.084;17.272;2023-03-25T11:04:32;99715.50;;;15.59
62611;BMP280;48683;48.084;17.272;2023-03-25T11:06:59;99702.44;;;15.42
62611;BMP280;48683;48.084;17.272;2023-03-25T11:09:27;99701.66;;;15.41
62611;BMP280;48683;48.084;17.272;2023-03-25T11:11:55;99709.31;;;15.59
62611;BMP280;48683;48.084;17.272;2023-03-25T11:14:26;99709.41;;;15.55
62611;BMP280;48683;48.084;17.272;2023-03-25T11:16:59;99725.97;;;15.57
62611;BMP280;48683;48.084;17.272;2023-03-25T11:19:32;99723.41;;;15.38
62611;BMP280;48683;48.084;17.272;2023-03-25T11:22:07;99730.00;;;15.37
62611;BMP280;48683;48.084;17.272;2023-03-25T11:24:39;99720.28;;;15.39
62611;BMP280;48683;48.084;17.272;2023-03-25T11:27:07;99717.47;;;15.43
62611;BMP280;48683;48.084;17.272;2023-03-25T11:29:35;99725.25;;;15.41
62611;BMP280;48683;48.084;17.272;2023-03-25T11:32:07;99716.25;;;15.31
62611;BMP280;48683;48.084;17.272;2023-03-25T11:34:35;99710.59;;;15.26
62611;BMP280;48683;48.084;17.272;2023-03-25T11:37:14;99710.47;;;15.16
62611;BMP280;48683;48.084;17.272;2023-03-25T11:39:41;99719.63;;;15.35
62611;BMP280;48683;48.084;17.272;2023-03-25T11:44:48;99711.91;;;15.34
62611;BMP280;48683;48.084;17.272;2023-03-25T11:47:20;99716.81;;;15.39
62611;BMP280;48683;48.084;17.272;2023-03-25T11:49:47;99714.78;;;15.43
62611;BMP280;48683;48.084;17.272;2023-03-25T11:52:16;99696.41;;;15.50
62611;BMP280;48683;48.084;17.272;2023-03-25T11:54:43;99701.66;;;15.70
62611;BMP280;48683;48.084;17.272;2023-03-25T11:57:17;99689.56;;;15.87
62611;BMP280;48683;48.084;17.272;2023-03-25T11:59:45;99681.22;;;15.94
62611;BMP280;48683;48.084;17.272;2023-03-25T12:02:21;99665.94;;;15.88
62611;BMP280;48683;48.084;17.272;2023-03-25T12:05:14;99672.66;;;15.83
62611;BMP280;48683;48.084;17.272;2023-03-25T12:07:49;99659.88;;;15.84
62611;BMP280;48683;48.084;17.272;2023-03-25T12:10:41;99653.16;;;15.88
62611;BMP280;48683;48.084;17.272;2023-03-25T12:26:42;99651.97;;;16.14
62611;BMP280;48683;48.084;17.272;2023-03-25T12:29:34;99655.97;;;16.10
62611;BMP280;48683;48.084;17.272;2023-03-25T12:35:13;99645.56;;;15.96
62611;BMP280;48683;48.084;17.272;2023-03-25T12:38:03;99643.97;;;15.98
62611;BMP280;48683;48.084;17.272;2023-03-25T12:43:21;99651.09;;;16.18
62611;BMP280;48683;48.084;17.272;2023-03-25T12:57:06;99631.63;;;15.85
62611;BMP280;48683;48.084;17.272;2023-03-25T12:59:46;99640.94;;;15.96
62611;BMP280;48683;48.084;17.272;2023-03-25T13:02:27;99631.72;;;15.94
62611;BMP280;48683;48.084;17.272;2023-03-25T13:08:14;99617.44;;;15.81
62611;BMP280;48683;48.084;17.272;2023-03-25T13:10:42;99622.19;;;16.02
62611;BMP280;48683;48.084;17.272;2023-03-25T13:13:18;99604.44;;;15.88
62611;BMP280;48683;48.084;17.272;2023-03-25T13:15:55;99604.34;;;15.92
62611;BMP280;48683;48.084;17.272;2023-03-25T13:18:41;99598.63;;;15.90
62611;BMP280;48683;48.084;17.272;2023-03-25T13:23:45;99592.56;;;15.86
62611;BMP280;48683;48.084;17.272;2023-03-25T13:26:17;99583.25;;;15.74
62611;BMP280;48683;48.084;17.272;2023-03-25T13:28:46;99607.50;;;15.90
62611;BMP280;48683;48.084;17.272;2023-03-25T13:31:15;99603.91;;;16.06
62611;BMP280;48683;48.084;17.272;2023-03-25T13:33:49;99593.09;;;15.93
62611;BMP280;48683;48.084;17.272;2023-03-25T13:36:36;99596.56;;;15.81
62611;BMP280;48683;48.084;17.272;2023-03-25T13:39:14;99598.91;;;15.92
62611;BMP280;48683;48.084;17.272;2023-03-25T13:41:52;99601.78;;;15.76
62611;BMP280;48683;48.084;17.272;2023-03-25T13:44:19;99602.19;;;15.87
62611;BMP280;48683;48.084;17.272;2023-03-25T13:46:55;99591.25;;;15.90
62611;BMP280;48683;48.084;17.272;2023-03-25T13:49:27;99588.66;;;15.87
62611;BMP280;48683;48.084;17.272;2023-03-25T13:51:54;99590.59;;;15.99
62611;BMP280;48683;48.084;17.272;2023-03-25T13:54:34;99589.31;;;15.91
62611;BMP280;48683;48.084;17.272;2023-03-25T14:08:26;99596.59;;;16.50
62611;BMP280;48683;48.084;17.272;2023-03-25T14:13:54;99599.13;;;16.57
62611;BMP280;48683;48.084;17.272;2023-03-25T14:16:25;99593.59;;;16.48
62611;BMP280;48683;48.084;17.272;2023-03-25T14:19:07;99601.16;;;16.53
62611;BMP280;48683;48.084;17.272;2023-03-25T14:24:27;99594.34;;;16.48
62611;BMP280;48683;48.084;17.272;2023-03-25T14:27:03;99588.16;;;16.60
62611;BMP280;48683;48.084;17.272;2023-03-25T14:29:36;99587.28;;;16.64
62611;BMP280;48683;48.084;17.272;2023-03-25T14:34:41;99565.19;;;16.52
62611;BMP280;48683;48.084;17.272;2023-03-25T14:44:23;99578.97;;;16.80
62611;BMP280;48683;48.084;17.272;2023-03-25T14:52:44;99559.66;;;16.56
62611;BMP280;48683;48.084;17.272;2023-03-25T14:55:17;99562.91;;;16.64
62611;BMP280;48683;48.084;17.272;2023-03-25T14:57:45;99552.97;;;16.48
62611;BMP280;48683;48.084;17.272;2023-03-25T15:00:24;99551.03;;;16.48
62611;BMP280;48683;48.084;17.272;2023-03-25T15:03:16;99552.09;;;16.51
62611;BMP280;48683;48.084;17.272;2023-03-25T15:05:43;99549.47;;;16.60
62611;BMP280;48683;48.084;17.272;2023-03-25T15:08:24;99554.44;;;16.61
62611;BMP280;48683;48.084;17.272;2023-03-25T15:13:37;99552.84;;;16.51
62611;BMP280;48683;48.084;17.272;2023-03-25T15:16:18;99543.16;;;16.41
62611;BMP280;48683;48.084;17.272;2023-03-25T15:21:12;99536.13;;;16.31
62611;BMP280;48683;48.084;17.272;2023-03-25T15:23:58;99544.13;;;16.35
62611;BMP280;48683;48.084;17.272;2023-03-25T15:26:27;99543.28;;;16.38
62611;BMP280;48683;48.084;17.272;2023-03-25T15:37:17;99526.38;;;16.34
62611;BMP280;48683;48.084;17.272;2023-03-25T15:42:44;99527.63;;;16.20
62611;BMP280;48683;48.084;17.272;2023-03-25T15:56:16;99512.38;;;16.13
62611;BMP280;48683;48.084;17.272;2023-03-25T15:58:55;99514.06;;;15.98
62611;BMP280;48683;48.084;17.272;2023-03-25T16:01:30;99523.47;;;15.94
62611;BMP280;48683;48.084;17.272;2023-03-25T16:04:10;99538.09;;;15.84
62611;BMP280;48683;48.084;17.272;2023-03-25T16:06:41;99530.44;;;15.82
62611;BMP280;48683;48.084;17.272;2023-03-25T16:09:14;99530.88;;;15.81
62611;BMP280;48683;48.084;17.272;2023-03-25T16:11:42;99521.91;;;15.71
62611;BMP280;48683;48.084;17.272;2023-03-25T16:14:13;99528.16;;;15.81
62611;BMP280;48683;48.084;17.272;2023-03-25T16:16:43;99529.69;;;15.82
62611;BMP280;48683;48.084;17.272;2023-03-25T16:19:15;99530.22;;;15.77
62611;BMP280;48683;48.084;17.272;2023-03-25T16:21:41;99525.38;;;15.72
62611;BMP280;48683;48.084;17.272;2023-03-25T16:24:09;99524.63;;;15.71
62611;BMP280;48683;48.084;17.272;2023-03-25T16:26:42;99527.75;;;15.70
62611;BMP280;48683;48.084;17.272;2023-03-25T16:29:23;99521.59;;;15.56
62611;BMP280;48683;48.084;17.272;2023-03-25T16:34:16;99530.22;;;15.39
62611;BMP280;48683;48.084;17.272;2023-03-25T16:36:44;99526.34;;;15.27
62611;BMP280;48683;48.084;17.272;2023-03-25T16:39:14;99533.50;;;15.21
62611;BMP280;48683;48.084;17.272;2023-03-25T16:41:50;99537.38;;;15.20
62611;BMP280;48683;48.084;17.272;2023-03-25T16:44:19;99546.47;;;15.13